Time;durP1;ratioP1;P1;durP2;ratioP2;P2;SDS_P1;SDS_P2;PMS_P1;PMS_P2;Temp;Humidity;BMP_temperature;BMP_pressure;BME280_temperature;BME280_humidity;BME280_pressure;Samples;Min_cycle;Max_cycle;Signal;HPM_P1;HPM_P2
2022/09/16 00:00:31;;;;;;;8.35;1.30;;;;;;;19.10;79.95;98116.22;1641458;87;21051;-83
2022/09/16 00:02:59;;;;;;;5.55;1.72;;;;;;;19.10;79.95;98122.34;1628857;87;21066;-83
2022/09/16 00:05:26;;;;;;;5.60;1.32;;;;;;;19.08;80.21;98121.62;1628232;87;21520;-81
2022/09/16 00:07:54;;;;;;;2.35;1.05;;;;;;;19.12;79.71;98116.48;1641925;87;20987;-83
2022/09/16 00:10:22;;;;;;;5.25;1.35;;;;;;;19.13;80.24;98118.63;1628746;87;21025;-84
2022/09/16 00:12:49;;;;;;;3.67;1.20;;;;;;;19.11;80.58;98110.00;1628462;87;21529;-80
2022/09/16 00:15:16;;;;;;;3.02;1.10;;;;;;;19.10;80.49;98108.31;1641220;87;21059;-83
2022/09/16 00:17:43;;;;;;;4.25;1.27;;;;;;;19.13;80.28;98101.02;1645796;87;21519;-83
2022/09/16 00:20:09;;;;;;;3.22;1.02;;;;;;;19.08;80.54;98101.86;1629711;87;20973;-82
2022/09/16 00:22:36;;;;;;;1.90;1.07;;;;;;;19.05;81.66;98096.81;1630508;86;21076;-82
2022/09/16 00:25:03;;;;;;;5.12;1.35;;;;;;;18.98;82.54;98087.69;1634385;87;21058;-80
2022/09/16 00:27:29;;;;;;;2.70;1.40;;;;;;;18.93;83.02;98082.78;1645467;87;21008;-81
2022/09/16 00:29:56;;;;;;;4.37;1.20;;;;;;;18.91;83.11;98079.91;1633914;87;21565;-81
2022/09/16 00:32:23;;;;;;;4.53;1.30;;;;;;;18.73;85.30;98078.97;1645732;87;21011;-83
2022/09/16 00:34:51;;;;;;;7.90;1.25;;;;;;;18.70;84.34;98089.72;1633192;86;21031;-81
2022/09/16 00:37:17;;;;;;;3.77;1.47;;;;;;;18.61;84.83;98093.89;1639238;87;21540;-81
2022/09/16 00:39:48;;;;;;;3.92;1.65;;;;;;;18.57;85.48;98102.13;1628470;87;21027;-82
2022/09/16 00:42:15;;;;;;;4.85;3.00;;;;;;;18.40;87.99;98088.43;1633785;87;20977;-83
2022/09/16 00:45:02;;;;;;;8.30;2.12;;;;;;;18.36;88.21;98096.64;1636500;87;21071;-84
2022/09/16 00:47:46;;;;;;;5.70;1.80;;;;;;;18.23;89.84;98096.70;1631268;87;21503;-79
2022/09/16 00:50:18;;;;;;;5.45;1.60;;;;;;;18.20;89.01;98092.97;1640832;87;21058;-79
2022/09/16 00:52:45;;;;;;;4.15;1.62;;;;;;;18.12;90.70;98092.68;1633059;87;20995;-81
2022/09/16 00:55:17;;;;;;;6.55;1.60;;;;;;;18.14;90.01;98092.09;1622269;87;21037;-79
2022/09/16 00:57:45;;;;;;;4.47;1.82;;;;;;;18.08;90.65;98089.42;1634299;86;21006;-78
2022/09/16 01:00:13;;;;;;;6.10;1.90;;;;;;;18.07;89.93;98085.96;1645301;87;21492;-81
2022/09/16 01:02:43;;;;;;;4.30;1.50;;;;;;;18.08;90.52;98084.16;1640786;87;21034;-79
2022/09/16 01:05:14;;;;;;;5.72;1.82;;;;;;;18.08;90.79;98069.25;1645709;87;21079;-80
2022/09/16 01:07:48;;;;;;;6.67;1.90;;;;;;;18.04;91.19;98072.19;1634074;87;21471;-80
2022/09/16 01:10:17;;;;;;;;;;;;;;;18.00;92.46;98068.10;1636549;87;21545;-80
2022/09/16 01:12:48;;;;;;;5.70;1.87;;;;;;;17.98;92.25;98089.72;1638243;87;20226;-79
2022/09/16 01:15:16;;;;;;;9.38;1.65;;;;;;;17.95;91.81;98096.53;1635032;87;20972;-78
2022/09/16 01:18:20;;;;;;;5.97;1.87;;;;;;;17.91;92.83;98102.95;1646446;86;21015;-79
2022/09/16 01:21:13;;;;;;;6.10;1.82;;;;;;;17.89;93.28;98117.52;1616824;87;21044;-78
2022/09/16 01:24:03;;;;;;;5.50;1.53;;;;;;;17.89;92.48;98118.84;1643975;87;20998;-81
2022/09/16 01:26:47;;;;;;;7.80;1.55;;;;;;;17.91;91.74;98124.00;1631059;87;21078;-81
2022/09/16 01:29:53;;;;;;;4.65;1.62;;;;;;;17.88;92.44;98117.97;1644405;87;20972;-79
2022/09/16 01:32:51;;;;;;;3.85;1.40;;;;;;;17.90;92.48;98120.50;1641101;87;21026;-80
2022/09/16 01:35:56;;;;;;;5.37;1.52;;;;;;;17.90;92.68;98137.59;1650411;87;20953;-83
2022/09/16 01:38:43;;;;;;;3.98;1.40;;;;;;;17.96;92.18;98139.78;1652312;87;21034;-82
2022/09/16 01:41:30;;;;;;;5.20;1.55;;;;;;;17.96;91.69;98142.41;1655543;86;21058;-79
2022/09/16 01:44:08;;;;;;;4.03;1.62;;;;;;;17.95;92.11;98143.38;1643417;86;21029;-80
2022/09/16 01:47:00;;;;;;;7.10;1.72;;;;;;;17.93;92.10;98156.28;1615925;87;21001;-80
2022/09/16 01:49:59;;;;;;;6.60;1.55;;;;;;;17.96;91.38;98147.67;1650690;87;21082;-80
2022/09/16 01:52:34;;;;;;;7.12;1.50;;;;;;;17.93;91.82;98140.50;1639658;87;20995;-79
2022/09/16 01:55:08;;;;;;;3.40;1.40;;;;;;;17.91;91.75;98128.77;1650242;87;21033;-85
2022/09/16 01:57:46;;;;;;;5.25;1.87;;;;;;;17.91;91.66;98135.34;1655806;87;21075;-80
2022/09/16 02:00:14;;;;;;;2.75;1.30;;;;;;;17.92;91.10;98143.58;1641935;86;21573;-80
2022/09/16 02:02:55;;;;;;;4.95;1.47;;;;;;;17.89;90.77;98144.65;1632095;87;21012;-78
2022/09/16 02:05:41;;;;;;;4.78;1.22;;;;;;;17.95;90.16;98148.64;1644739;87;21025;-80
2022/09/16 02:08:12;;;;;;;3.72;1.27;;;;;;;17.98;90.07;98163.35;1637523;87;21028;-79
2022/09/16 02:10:56;;;;;;;5.80;1.30;;;;;;;17.99;89.79;98170.31;1649543;87;21021;-79
2022/09/16 02:13:37;;;;;;;6.15;1.62;;;;;;;18.00;89.78;98168.86;1643849;87;21548;-79
2022/09/16 02:16:09;;;;;;;2.62;1.37;;;;;;;18.09;88.96;98171.34;1630823;87;20993;-77
2022/09/16 02:18:40;;;;;;;5.55;1.20;;;;;;;18.08;88.67;98183.66;1628018;87;21021;-84
2022/09/16 02:21:10;;;;;;;3.83;1.42;;;;;;;18.18;88.32;98169.84;1637966;87;21050;-85
2022/09/16 02:23:45;;;;;;;5.75;1.35;;;;;;;18.19;88.16;98176.31;1636913;87;21009;-83
2022/09/16 02:26:16;;;;;;;4.90;1.40;;;;;;;18.25;87.71;98180.30;1630568;87;20973;-84
2022/09/16 02:28:46;;;;;;;2.75;1.20;;;;;;;18.26;87.68;98175.39;1637795;87;21000;-83
2022/09/16 02:31:15;;;;;;;2.15;0.98;;;;;;;18.26;87.62;98174.94;1632895;87;21007;-84
2022/09/16 02:33:50;;;;;;;6.20;1.15;;;;;;;18.28;87.53;98172.17;1646281;87;20971;-82
2022/09/16 02:36:20;;;;;;;2.75;1.20;;;;;;;18.28;87.71;98167.77;1642157;87;21022;-80
2022/09/16 02:39:06;;;;;;;3.40;1.20;;;;;;;18.29;87.97;98152.82;1646155;87;21014;-83
2022/09/16 02:41:32;;;;;;;2.05;1.22;;;;;;;18.24;88.14;98150.53;1638676;87;21058;-79
2022/09/16 02:44:01;;;;;;;1.22;0.90;;;;;;;18.25;87.48;98161.88;1636967;87;20996;-81
2022/09/16 02:46:52;;;;;;;5.78;1.50;;;;;;;18.17;88.52;98150.59;1638652;87;21900;-83
2022/09/16 02:49:48;;;;;;;3.00;1.25;;;;;;;18.20;87.73;98159.56;1629725;87;21051;-82
2022/09/16 02:52:27;;;;;;;2.60;1.22;;;;;;;18.19;87.90;98159.69;1634393;87;20977;-83
2022/09/16 02:55:08;;;;;;;3.33;1.20;;;;;;;18.17;87.94;98151.07;1629335;87;21054;-83
2022/09/16 02:57:35;;;;;;;3.55;1.40;;;;;;;18.16;88.18;98167.30;1632148;87;21008;-79
2022/09/16 03:00:02;;;;;;;2.37;1.07;;;;;;;18.18;88.07;98165.89;1631157;87;20973;-80
2022/09/16 03:02:33;;;;;;;3.52;1.30;;;;;;;18.19;87.57;98179.42;1620243;87;21060;-80
2022/09/16 03:05:00;;;;;;;3.80;1.40;;;;;;;18.16;88.58;98180.94;1646508;87;21004;-80
2022/09/16 03:07:27;;;;;;;2.45;1.07;;;;;;;18.17;87.96;98182.64;1643366;87;21014;-82
2022/09/16 03:09:53;;;;;;;2.12;1.40;;;;;;;18.16;88.17;98176.52;1646347;87;21066;-82
2022/09/16 03:12:43;;;;;;;2.80;1.35;;;;;;;18.18;88.19;98172.46;1636271;86;21007;-85
2022/09/16 03:15:27;;;;;;;3.00;1.40;;;;;;;18.21;88.05;98173.09;1645409;86;21071;-84
2022/09/16 03:18:14;;;;;;;4.53;1.20;;;;;;;18.17;88.34;98179.52;1615213;87;20995;-84
2022/09/16 03:21:01;;;;;;;4.40;1.75;;;;;;;18.14;87.95;98170.52;1635149;86;21456;-81
2022/09/16 03:23:55;;;;;;;3.72;1.47;;;;;;;18.15;88.16;98170.06;1639018;86;21075;-81
2022/09/16 03:26:30;;;;;;;1.40;1.10;;;;;;;18.15;88.28;98171.38;1630115;87;21028;-82
2022/09/16 03:29:16;;;;;;;4.60;1.37;;;;;;;18.17;87.85;98184.78;1631933;87;21030;-81
2022/09/16 03:32:01;;;;;;;5.60;1.20;;;;;;;18.15;88.42;98187.17;1643944;87;20957;-84
2022/09/16 03:34:50;;;;;;;5.42;1.30;;;;;;;18.13;88.22;98191.70;1639170;86;21022;-83
2022/09/16 03:37:20;;;;;;;3.47;1.10;;;;;;;18.19;87.71;98191.26;1636100;87;21500;-80
2022/09/16 03:39:54;;;;;;;4.03;1.35;;;;;;;18.18;87.69;98192.20;1631944;87;21011;-80
2022/09/16 03:42:21;;;;;;;4.42;1.20;;;;;;;18.14;87.62;98187.62;1639092;87;21000;-81
2022/09/16 03:44:48;;;;;;;3.20;1.20;;;;;;;18.18;87.28;98185.62;1629956;87;21510;-84
2022/09/16 03:47:16;;;;;;;2.33;1.10;;;;;;;18.25;86.76;98182.93;1626704;87;20985;-84
2022/09/16 03:49:42;;;;;;;3.37;1.10;;;;;;;18.24;86.62;98194.39;1630150;87;21062;-84
2022/09/16 03:52:09;;;;;;;2.50;1.10;;;;;;;18.27;86.23;98196.33;1633873;87;21506;-78
2022/09/16 03:54:37;;;;;;;4.62;1.20;;;;;;;18.27;86.28;98207.34;1632503;87;21022;-79
2022/09/16 03:57:05;;;;;;;2.02;1.05;;;;;;;18.29;86.32;98214.65;1631696;87;21039;-81
2022/09/16 03:59:31;;;;;;;4.17;1.45;;;;;;;18.35;85.85;98210.27;1627425;87;21013;-83
2022/09/16 04:01:58;;;;;;;4.97;1.17;;;;;;;18.36;85.80;98215.88;1636116;87;21050;-84
2022/09/16 04:04:25;;;;;;;4.20;1.67;;;;;;;18.36;85.88;98218.98;1639803;86;20988;-79
2022/09/16 04:06:51;;;;;;;2.95;1.10;;;;;;;18.35;85.51;98220.79;1644219;87;20995;-79
2022/09/16 04:09:18;;;;;;;2.72;1.45;;;;;;;18.42;85.18;98220.73;1628193;87;21520;-80
2022/09/16 04:11:45;;;;;;;4.25;1.15;;;;;;;18.41;85.10;98216.41;1634567;87;21022;-85
2022/09/16 04:14:12;;;;;;;5.17;1.00;;;;;;;18.46;84.80;98226.59;1628524;86;21036;-84
2022/09/16 04:16:38;;;;;;;1.60;1.20;;;;;;;18.43;84.90;98237.35;1631688;87;21105;-84
2022/09/16 04:19:06;;;;;;;3.70;1.27;;;;;;;18.42;85.24;98240.92;1638063;87;21007;-80
2022/09/16 04:21:33;;;;;;;2.45;1.27;;;;;;;18.44;85.46;98242.52;1627824;86;21134;-84
2022/09/16 04:23:59;;;;;;;2.20;1.20;;;;;;;18.41;85.54;98254.56;1644167;87;20986;-80
2022/09/16 04:26:26;;;;;;;3.98;1.12;;;;;;;18.42;85.08;98254.94;1629324;87;21031;-81
2022/09/16 04:28:55;;;;;;;4.05;1.20;;;;;;;18.41;85.28;98258.51;1628007;87;20997;-80
2022/09/16 04:31:22;;;;;;;2.85;1.37;;;;;;;18.44;84.93;98251.73;1638498;87;21514;-79
2022/09/16 04:33:49;;;;;;;3.30;1.40;;;;;;;18.41;85.45;98253.24;1645044;86;21058;-81
2022/09/16 04:36:19;;;;;;;4.47;1.55;;;;;;;18.46;85.03;98259.04;1633989;87;20985;-79
2022/09/16 04:38:47;;;;;;;1.72;1.12;;;;;;;18.43;85.47;98264.50;1635567;87;21019;-81
2022/09/16 04:41:20;;;;;;;4.55;1.30;;;;;;;18.47;85.24;98257.23;1645735;86;20980;-84
2022/09/16 04:43:54;;;;;;;8.55;1.70;;;;;;;18.45;85.13;98265.23;1637515;87;21024;-80
2022/09/16 04:46:23;;;;;;;4.92;1.45;;;;;;;18.45;85.06;98273.61;1634906;87;21027;-80
2022/09/16 04:48:51;;;;;;;4.37;1.50;;;;;;;18.45;85.42;98277.08;1629733;87;21005;-81
2022/09/16 04:51:18;;;;;;;3.67;1.30;;;;;;;18.38;86.04;98279.80;1645512;87;20996;-83
2022/09/16 04:53:46;;;;;;;3.72;1.20;;;;;;;18.39;85.93;98285.41;1636254;86;21062;-84
2022/09/16 04:56:16;;;;;;;1.87;1.17;;;;;;;18.39;85.77;98284.09;1637135;87;20996;-84
2022/09/16 04:58:45;;;;;;;5.30;1.20;;;;;;;18.29;86.37;98296.21;1637883;87;20990;-82
2022/09/16 05:01:16;;;;;;;5.50;1.60;;;;;;;18.21;87.64;98291.95;1633582;87;20984;-83
2022/09/16 05:03:48;;;;;;;2.35;1.35;;;;;;;18.20;87.28;98286.31;1632880;87;21042;-81
2022/09/16 05:06:18;;;;;;;1.77;0.87;;;;;;;18.14;88.30;98284.94;1639299;87;21472;-80
2022/09/16 05:08:45;;;;;;;2.90;1.15;;;;;;;18.10;88.08;98303.20;1637521;86;21033;-81
2022/09/16 05:11:16;;;;;;;4.15;1.30;;;;;;;18.04;88.09;98297.88;1622057;87;20965;-84
2022/09/16 05:13:43;;;;;;;2.45;1.05;;;;;;;18.01;88.36;98308.63;1637768;87;21026;-80
2022/09/16 05:16:13;;;;;;;3.67;1.10;;;;;;;17.95;88.99;98302.95;1654957;87;21118;-80
2022/09/16 05:18:42;;;;;;;2.15;1.10;;;;;;;17.91;89.87;98300.16;1653509;87;21123;-79
2022/09/16 05:21:14;;;;;;;2.67;1.17;;;;;;;17.89;89.16;98300.27;1652144;85;21063;-80
2022/09/16 05:23:42;;;;;;;4.50;1.20;;;;;;;17.81;91.65;98298.59;1655960;87;20998;-78
2022/09/16 05:26:16;;;;;;;3.55;1.12;;;;;;;17.85;90.83;98292.22;1641298;87;20982;-83
2022/09/16 05:28:43;;;;;;;3.70;1.30;;;;;;;17.84;91.38;98292.66;1647440;87;21008;-82
2022/09/16 05:31:20;;;;;;;2.05;1.27;;;;;;;17.87;91.31;98294.27;1647920;86;21096;-82
2022/09/16 05:34:03;;;;;;;3.30;1.30;;;;;;;17.94;90.70;98293.37;1650541;87;21129;-81
2022/09/16 05:36:33;;;;;;;3.30;1.20;;;;;;;17.92;91.12;98300.03;1650221;86;21065;-80
2022/09/16 05:39:01;;;;;;;2.17;1.25;;;;;;;17.88;92.55;98298.08;1645535;86;21047;-81
2022/09/16 05:41:28;;;;;;;4.50;1.25;;;;;;;17.94;91.54;98302.09;1642614;87;21026;-82
2022/09/16 05:44:00;;;;;;;2.75;1.30;;;;;;;17.95;91.38;98305.10;1639352;87;21044;-80
2022/09/16 05:46:28;;;;;;;2.67;1.20;;;;;;;17.96;91.70;98298.88;1621641;88;21006;-81
2022/09/16 05:48:55;;;;;;;5.35;1.20;;;;;;;18.03;91.37;98303.27;1638908;87;21052;-80
2022/09/16 05:51:23;;;;;;;5.20;1.50;;;;;;;18.09;91.11;98296.27;1639243;86;21038;-80
2022/09/16 05:53:51;;;;;;;4.97;1.40;;;;;;;18.06;91.87;98296.47;1654351;85;21010;-82
2022/09/16 05:56:23;;;;;;;3.00;1.30;;;;;;;18.09;91.43;98294.48;1642342;87;21034;-80
2022/09/16 05:58:52;;;;;;;2.47;1.32;;;;;;;18.21;90.67;98298.53;1643705;87;21841;-81
2022/09/16 06:01:23;;;;;;;4.22;1.47;;;;;;;18.19;91.37;98303.06;1647150;85;20990;-80
2022/09/16 06:03:50;;;;;;;3.22;1.40;;;;;;;18.27;90.63;98300.73;1648176;87;21070;-79
2022/09/16 06:06:24;;;;;;;2.60;1.20;;;;;;;18.31;91.19;98301.37;1642798;87;21487;-82
2022/09/16 06:08:53;;;;;;;2.98;1.32;;;;;;;18.42;90.07;98308.03;1643643;87;21070;-82
2022/09/16 06:11:20;;;;;;;3.45;1.40;;;;;;;18.44;89.71;98307.44;1643716;87;21009;-81
2022/09/16 06:13:56;;;;;;;2.80;1.20;;;;;;;18.43;89.63;98309.23;1644740;87;21051;-81
2022/09/16 06:16:25;;;;;;;4.17;1.20;;;;;;;18.51;89.00;98311.34;1625360;87;20988;-80
2022/09/16 06:18:56;;;;;;;2.85;1.30;;;;;;;18.58;88.79;98313.92;1636305;87;20987;-81
2022/09/16 06:21:23;;;;;;;2.55;1.22;;;;;;;18.43;89.48;98299.20;1637406;87;21077;-80
2022/09/16 06:23:50;;;;;;;3.45;1.30;;;;;;;18.58;89.17;98308.66;1646805;86;21615;-81
2022/09/16 06:26:21;;;;;;;5.42;1.30;;;;;;;18.55;89.23;98311.97;1638265;87;21050;-83
2022/09/16 06:28:49;;;;;;;2.72;1.17;;;;;;;18.60;88.97;98320.38;1630445;87;21015;-82
2022/09/16 06:31:21;;;;;;;2.58;1.35;;;;;;;18.68;88.74;98323.30;1626420;87;21006;-81
2022/09/16 06:33:51;;;;;;;2.52;1.20;;;;;;;18.61;88.92;98328.65;1628419;87;21039;-81
2022/09/16 06:36:21;;;;;;;2.75;1.30;;;;;;;18.56;89.20;98330.75;1634551;87;21607;-82
2022/09/16 06:38:50;;;;;;;3.42;1.50;;;;;;;18.65;89.02;98340.64;1633410;87;21007;-82
2022/09/16 06:41:18;;;;;;;3.90;1.20;;;;;;;18.66;88.93;98344.94;1628707;87;21015;-80
2022/09/16 06:43:52;;;;;;;2.72;1.40;;;;;;;18.66;88.76;98343.62;1629940;87;21039;-80
2022/09/16 06:46:25;;;;;;;4.62;1.67;;;;;;;18.66;88.90;98345.81;1634244;87;21070;-79
2022/09/16 06:48:55;;;;;;;3.15;1.17;;;;;;;18.71;88.69;98344.16;1630872;87;20995;-79
2022/09/16 06:51:29;;;;;;;2.17;1.12;;;;;;;18.75;88.44;98344.79;1639352;87;21031;-81
2022/09/16 06:54:03;;;;;;;3.10;1.17;;;;;;;18.80;88.36;98347.95;1617103;87;21007;-81
2022/09/16 06:56:30;;;;;;;3.27;1.20;;;;;;;18.83;88.00;98347.75;1632205;87;21530;-80
2022/09/16 06:58:57;;;;;;;4.28;1.20;;;;;;;18.80;88.11;98338.28;1626038;87;20989;-80
2022/09/16 07:01:27;;;;;;;1.70;1.32;;;;;;;18.85;88.09;98346.69;1636576;87;21042;-82
2022/09/16 07:03:56;;;;;;;3.10;1.10;;;;;;;18.94;87.54;98337.76;1631986;87;20998;-81
2022/09/16 07:06:26;;;;;;;2.30;1.10;;;;;;;18.94;87.33;98343.02;1633882;87;21019;-81
2022/09/16 07:08:53;;;;;;;3.95;1.60;;;;;;;18.99;87.27;98342.23;1628780;87;21015;-80
2022/09/16 07:11:22;;;;;;;3.22;1.67;;;;;;;19.08;86.81;98338.95;1642288;87;21594;-81
2022/09/16 07:13:50;;;;;;;7.22;1.22;;;;;;;19.10;86.65;98342.31;1646036;87;21472;-80
2022/09/16 07:16:23;;;;;;;3.58;1.32;;;;;;;19.06;86.09;98339.53;1639223;87;21018;-82
2022/09/16 07:18:54;;;;;;;2.67;1.27;;;;;;;19.18;85.91;98337.78;1648330;87;20981;-81
2022/09/16 07:21:27;;;;;;;2.65;1.12;;;;;;;19.22;85.23;98335.32;1645638;87;21102;-79
2022/09/16 07:23:57;;;;;;;2.00;1.20;;;;;;;19.23;84.83;98341.77;1643495;87;21002;-81
2022/09/16 07:26:30;;;;;;;5.17;1.40;;;;;;;19.23;84.83;98344.89;1650567;86;21514;-81
2022/09/16 07:28:59;;;;;;;;;;;;;;;19.27;84.42;98347.18;1647718;86;21022;-81
2022/09/16 07:31:29;;;;;;;4.30;1.50;;;;;;;19.29;83.87;98352.34;1657944;86;20185;-83
2022/09/16 07:33:57;;;;;;;2.45;1.00;;;;;;;19.27;83.75;98357.72;1652339;85;21043;-80
2022/09/16 07:36:27;;;;;;;3.45;1.30;;;;;;;19.33;82.99;98358.24;1631272;87;21026;-83
2022/09/16 07:38:59;;;;;;;9.13;1.10;;;;;;;19.33;82.70;98362.20;1635150;87;21018;-82
2022/09/16 07:41:29;;;;;;;2.85;1.47;;;;;;;19.27;83.02;98360.36;1638717;87;21074;-81
2022/09/16 07:43:58;;;;;;;2.22;1.20;;;;;;;19.29;83.51;98354.98;1649253;87;21065;-81
2022/09/16 07:46:27;;;;;;;1.82;1.10;;;;;;;19.29;84.04;98345.76;1644563;87;21025;-79
2022/09/16 07:48:57;;;;;;;4.47;1.25;;;;;;;19.31;84.10;98345.66;1646721;87;21466;-82
2022/09/16 07:51:25;;;;;;;3.58;1.20;;;;;;;19.41;83.97;98346.66;1649322;87;21082;-83
2022/09/16 07:54:02;;;;;;;2.90;1.10;;;;;;;19.44;84.06;98333.27;1650718;87;21554;-81
2022/09/16 07:56:33;;;;;;;4.58;1.10;;;;;;;19.61;83.98;98322.78;1613700;87;21012;-79
2022/09/16 07:59:02;;;;;;;2.80;1.00;;;;;;;19.75;83.44;98319.14;1644393;87;21006;-79
2022/09/16 08:01:30;;;;;;;2.40;1.20;;;;;;;19.87;83.45;98322.17;1650066;86;21799;-79
2022/09/16 08:03:58;;;;;;;4.03;1.55;;;;;;;20.02;82.00;98314.91;1626101;87;20978;-79
2022/09/16 08:06:27;;;;;;;3.42;1.22;;;;;;;20.14;81.30;98316.59;1645782;86;20989;-81
2022/09/16 08:08:58;;;;;;;16.12;1.82;;;;;;;20.29;79.60;98321.16;1653431;86;21502;-80
2022/09/16 08:11:29;;;;;;;4.40;1.10;;;;;;;20.32;79.00;98330.17;1660263;86;21020;-79
2022/09/16 08:13:58;;;;;;;1.70;1.05;;;;;;;20.41;79.05;98328.16;1657950;86;20944;-80
2022/09/16 08:16:25;;;;;;;3.00;0.90;;;;;;;20.43;78.95;98315.67;1630598;87;21499;-80
2022/09/16 08:18:55;;;;;;;1.85;0.70;;;;;;;20.62;77.84;98309.80;1637456;87;21057;-80
2022/09/16 08:21:26;;;;;;;1.82;0.90;;;;;;;20.67;77.48;98316.03;1646516;86;21070;-82
2022/09/16 08:23:54;;;;;;;3.80;1.00;;;;;;;20.75;76.71;98325.99;1640570;86;20998;-82
2022/09/16 08:26:21;;;;;;;2.20;0.90;;;;;;;20.82;76.24;98343.05;1641411;87;21381;-81
2022/09/16 08:28:49;;;;;;;2.55;0.88;;;;;;;20.91;76.29;98333.54;1640665;87;20951;-81
2022/09/16 08:31:17;;;;;;;2.83;0.90;;;;;;;21.04;75.66;98336.89;1643878;87;21038;-80
2022/09/16 08:33:51;;;;;;;2.20;0.95;;;;;;;21.11;73.77;98348.66;1633492;87;21046;-83
2022/09/16 08:36:27;;;;;;;2.25;1.05;;;;;;;21.20;73.61;98335.17;1639323;87;21010;-83
2022/09/16 08:39:00;;;;;;;1.80;0.90;;;;;;;21.21;73.32;98334.22;1634559;87;21139;-81
2022/09/16 08:42:01;;;;;;;3.60;0.98;;;;;;;21.30;72.32;98334.78;1645772;87;21001;-79
2022/09/16 08:44:49;;;;;;;2.87;1.32;;;;;;;21.50;72.18;98337.14;1557171;91;21019;-80
2022/09/16 08:47:42;;;;;;;1.98;1.05;;;;;;;21.75;71.22;98336.45;1641211;87;21002;-83
2022/09/16 08:50:17;;;;;;;3.45;1.12;;;;;;;21.93;71.80;98334.08;1641069;87;21006;-80
2022/09/16 08:52:46;;;;;;;3.60;1.00;;;;;;;22.10;69.75;98332.15;1636465;87;21526;-81
2022/09/16 08:55:30;;;;;;;3.08;1.40;;;;;;;22.16;67.78;98338.27;1637881;86;20991;-80
2022/09/16 08:58:20;;;;;;;2.92;1.67;;;;;;;22.22;68.61;98341.72;1635353;87;20998;-81
2022/09/16 09:00:56;;;;;;;3.33;1.17;;;;;;;22.30;68.30;98341.08;1637657;87;21656;-81
2022/09/16 09:03:41;;;;;;;5.12;1.30;;;;;;;22.30;68.33;98332.30;1629551;87;21498;-78
2022/09/16 09:06:37;;;;;;;5.25;1.37;;;;;;;22.30;68.49;98320.38;1619529;88;21080;-79
2022/09/16 09:09:24;;;;;;;3.20;1.32;;;;;;;22.30;68.46;98322.53;1644380;86;21463;-82
2022/09/16 09:12:08;;;;;;;2.62;1.30;;;;;;;22.42;68.92;98321.97;1633639;87;21003;-81
2022/09/16 09:15:00;;;;;;;5.30;2.40;;;;;;;22.53;68.09;98310.47;1632688;87;21127;-78
2022/09/16 09:18:08;;;;;;;7.95;1.95;;;;;;;22.54;67.95;98310.80;1629869;87;21005;-79
2022/09/16 09:20:46;;;;;;;4.90;1.37;;;;;;;22.64;68.28;98305.91;1630007;87;21469;-81
2022/09/16 09:23:42;;;;;;;7.53;2.00;;;;;;;22.73;68.43;98297.62;1634674;87;21006;-81
2022/09/16 09:26:22;;;;;;;3.92;1.20;;;;;;;22.86;68.08;98271.37;1629300;86;21972;-79
2022/09/16 09:29:11;;;;;;;5.90;1.30;;;;;;;23.02;68.45;98277.86;1625145;88;21000;-83
2022/09/16 09:32:16;;;;;;;4.78;1.57;;;;;;;23.15;66.51;98288.19;1628579;87;20995;-80
2022/09/16 09:35:11;;;;;;;3.95;1.10;;;;;;;23.19;63.62;98286.11;1644508;87;21026;-79
2022/09/16 09:38:16;;;;;;;5.30;1.30;;;;;;;23.31;65.00;98278.86;1633976;87;21535;-81
2022/09/16 09:40:48;;;;;;;3.40;1.30;;;;;;;23.52;63.33;98271.60;1639091;87;20949;-81
2022/09/16 09:43:29;;;;;;;2.35;1.27;;;;;;;23.67;63.17;98271.16;1636703;86;21022;-81
2022/09/16 09:46:04;;;;;;;3.08;1.12;;;;;;;23.67;61.57;98277.80;1634160;87;21086;-81
2022/09/16 09:48:39;;;;;;;1.47;0.90;;;;;;;23.70;61.30;98278.36;1637793;87;21022;-81
2022/09/16 09:51:14;;;;;;;4.47;1.32;;;;;;;23.78;59.83;98282.99;1646402;87;20997;-79
2022/09/16 09:53:45;;;;;;;4.55;1.20;;;;;;;23.66;61.25;98286.75;1641051;87;21018;-81
2022/09/16 09:56:20;;;;;;;2.77;1.20;;;;;;;23.74;60.74;98295.67;1632140;87;21002;-80
2022/09/16 09:59:22;;;;;;;4.47;1.27;;;;;;;23.73;60.81;98299.78;1643204;87;20973;-79
2022/09/16 10:02:02;;;;;;;3.83;1.20;;;;;;;23.67;60.22;98301.67;1635160;87;21101;-78
2022/09/16 10:04:34;;;;;;;3.20;1.50;;;;;;;23.67;60.32;98292.39;1646292;87;20953;-80
2022/09/16 10:07:01;;;;;;;1.45;0.90;;;;;;;23.68;59.86;98296.73;1622451;87;20982;-80
2022/09/16 10:09:28;;;;;;;2.00;1.10;;;;;;;23.65;60.00;98299.16;1642555;86;21026;-80
2022/09/16 10:11:55;;;;;;;4.67;1.50;;;;;;;23.63;60.10;98289.17;1637387;87;21058;-80
2022/09/16 10:14:33;;;;;;;6.97;1.50;;;;;;;23.65;59.62;98289.88;1632055;87;21022;-79
2022/09/16 10:17:04;;;;;;;3.33;1.10;;;;;;;23.76;60.02;98292.38;1645912;87;21026;-81
2022/09/16 10:19:54;;;;;;;3.08;1.20;;;;;;;24.05;59.63;98290.19;1650039;87;21034;-80
2022/09/16 10:22:31;;;;;;;3.87;1.45;;;;;;;24.22;59.99;98288.11;1653672;86;21065;-80
2022/09/16 10:25:01;;;;;;;2.83;1.20;;;;;;;24.43;59.21;98293.69;1645421;87;21034;-79
2022/09/16 10:27:34;;;;;;;3.80;1.10;;;;;;;24.55;58.82;98286.41;1650502;86;21058;-78
2022/09/16 10:30:17;;;;;;;3.50;1.10;;;;;;;24.54;57.72;98287.41;1641283;87;21007;-79
2022/09/16 10:33:00;;;;;;;6.73;1.70;;;;;;;24.59;57.59;98285.98;1644500;87;21038;-80
2022/09/16 10:35:33;;;;;;;2.37;1.22;;;;;;;24.57;57.64;98278.66;1624931;88;20984;-79
2022/09/16 10:38:19;;;;;;;2.98;1.32;;;;;;;24.67;58.25;98279.94;1640356;87;21068;-79
2022/09/16 10:40:56;;;;;;;6.62;3.20;;;;;;;24.70;56.74;98284.94;1641408;87;21042;-79
2022/09/16 10:43:25;;;;;;;5.45;1.60;;;;;;;24.57;56.73;98277.80;1649135;87;20990;-80
2022/09/16 10:45:53;;;;;;;2.92;1.30;;;;;;;24.52;55.61;98277.41;1646675;87;21006;-79
2022/09/16 10:48:23;;;;;;;2.02;1.07;;;;;;;24.52;56.67;98274.76;1641863;87;21495;-81
2022/09/16 10:51:02;;;;;;;4.25;1.20;;;;;;;24.57;56.32;98279.12;1643422;87;20990;-80
2022/09/16 10:53:36;;;;;;;1.92;1.00;;;;;;;24.46;54.55;98278.80;1636781;87;21517;-79
2022/09/16 10:56:19;;;;;;;1.90;1.10;;;;;;;24.47;55.42;98266.34;1644398;87;21017;-79
2022/09/16 10:58:46;;;;;;;4.35;1.50;;;;;;;24.45;55.80;98255.86;1644789;86;20970;-79
2022/09/16 11:01:48;;;;;;;3.52;1.00;;;;;;;24.54;56.58;98262.98;1626364;86;21082;-83
2022/09/16 11:04:40;;;;;;;2.65;1.20;;;;;;;24.73;56.05;98259.41;1645420;87;20990;-79
2022/09/16 11:07:37;;;;;;;2.70;1.30;;;;;;;24.75;54.61;98257.44;1643281;87;21174;-79
2022/09/16 11:10:31;;;;;;;1.82;1.10;;;;;;;24.69;54.00;98218.17;1641267;87;21010;-79
2022/09/16 11:13:06;;;;;;;2.67;1.10;;;;;;;24.75;55.07;98208.27;1649157;87;21009;-82
2022/09/16 11:16:02;;;;;;;4.50;1.67;;;;;;;24.79;53.99;98198.17;1652045;86;20996;-81
2022/09/16 11:18:43;;;;;;;2.55;1.20;;;;;;;24.87;53.41;98184.10;1647502;87;20998;-80
2022/09/16 11:21:45;;;;;;;2.58;1.25;;;;;;;24.89;53.71;98200.73;1649204;86;21075;-79
2022/09/16 11:24:41;;;;;;;2.25;1.15;;;;;;;24.96;54.03;98211.12;1627396;88;21008;-81
2022/09/16 11:27:28;;;;;;;2.05;1.10;;;;;;;24.81;53.63;98215.63;1649911;86;21138;-81
2022/09/16 11:30:14;;;;;;;1.72;1.10;;;;;;;24.85;53.70;98215.31;1652588;86;21004;-80
2022/09/16 11:33:15;;;;;;;8.43;1.35;;;;;;;24.91;53.87;98216.90;1654978;85;20988;-81
2022/09/16 11:35:49;;;;;;;1.95;1.05;;;;;;;24.87;53.81;98211.55;1647098;87;22062;-81
2022/09/16 11:38:41;;;;;;;3.10;1.10;;;;;;;24.96;53.76;98208.46;1658522;86;20976;-80
2022/09/16 11:41:39;;;;;;;1.87;1.20;;;;;;;24.90;52.85;98209.06;1645272;85;21056;-81
2022/09/16 11:44:48;;;;;;;4.03;1.15;;;;;;;24.84;53.09;98199.88;1651717;87;21069;-81
2022/09/16 11:47:29;;;;;;;1.80;1.05;;;;;;;24.87;52.88;98196.06;1650859;87;21020;-81
2022/09/16 11:50:04;;;;;;;4.08;1.05;;;;;;;24.85;53.10;98193.58;1649030;87;20990;-81
2022/09/16 11:52:39;;;;;;;3.80;1.30;;;;;;;24.88;54.16;98197.25;1643687;87;21002;-80
2022/09/16 11:55:47;;;;;;;6.45;1.60;;;;;;;24.97;54.42;98191.53;1654173;87;20994;-80
2022/09/16 11:58:45;;;;;;;2.95;1.50;;;;;;;25.10;54.28;98187.15;1653176;86;20952;-79
2022/09/16 12:01:41;;;;;;;3.17;1.17;;;;;;;25.13;53.85;98182.37;1631503;87;21025;-80
2022/09/16 12:04:28;;;;;;;2.33;1.30;;;;;;;25.15;53.82;98180.89;1650653;87;21004;-78
2022/09/16 12:07:12;;;;;;;4.78;1.00;;;;;;;25.24;53.55;98182.64;1652337;87;21008;-80
2022/09/16 12:09:53;;;;;;;3.98;1.30;;;;;;;25.19;53.47;98181.75;1643423;87;21185;-79
2022/09/16 12:12:25;;;;;;;2.52;1.10;;;;;;;25.19;53.51;98173.77;1651254;87;21004;-79